Latest Coastal Weather Observations for Rowley Shoals

IDW60701

Issued at 7:15 pm WST Monday 1 September 2014 (issued every 10 minutes, with the page automatically refreshed every 10 minutes)

About coastal observations | Map of coastal stations | Coastal observations for WA | Marine services | Other Formats
Station Details ID: 200713 Name: ROWLEY SHOALS Lat: -17.52 Lon: 118.95 Height: 0.0 m
Data from the previous 72 hours. | See also: Recent months for locations in Western Australia
Date/Time
WST
Temp

°C
Wind Pressure Rain
since 9am
mm
Weather Cloud Vis
km
Sea
Height
m
Swell
Dir
 
Speed
knots
Gust
knots
hPa Trend Height
m
Period
s
Dir
01/07:00pm - ESE 5 6 1014.6 - - - - - - - - -
01/06:30pm - ESE 5 6 1014.1 - - - - - - - - -
01/06:00pm - ESE 6 7 1014.1 - - - - - - - - -
01/05:30pm - ESE 6 7 1014.0 - - - - - - - - -
01/05:00pm - ESE 7 8 1013.9 - - - - - - - - -
01/04:30pm - ESE 6 7 1013.8 - - - - - - - - -
01/04:00pm - ESE 6 7 1013.8 - - - - - - - - -
01/03:30pm - SE 6 7 1013.8 - - - - - - - - -
01/03:00pm - SE 6 7 1013.8 - - - - - - - - -
01/02:30pm - SE 6 7 1014.1 - - - - - - - - -
01/02:00pm - ESE 6 6 1014.2 - - - - - - - - -
01/01:30pm - SE 6 7 1014.5 - - - - - - - - -
01/01:00pm - SE 6 8 1014.5 - - - - - - - - -
01/12:30pm - SE 7 8 1014.7 - - - - - - - - -
01/12:00pm - SE 7 8 1015.0 - - - - - - - - -
01/11:30am - SE 7 8 1015.5 - - - - - - - - -
01/11:00am - SSE 7 8 1015.8 - - - - - - - - -
01/10:30am - S 6 7 1016.1 - - - - - - - - -
01/10:00am - S 6 8 1016.2 - - - - - - - - -
01/09:30am - S 6 9 1016.0 - - - - - - - - -
01/09:00am - S 6 8 1015.7 - - - - - - - - -
01/08:30am - S 7 9 1015.4 - - - - - - - - -
01/08:00am - S 6 6 1015.2 - - - - - - - - -
01/07:30am - S 5 6 1014.7 - - - - - - - - -
01/07:00am - S 5 6 1014.4 - - - - - - - - -
01/06:30am - SSW 5 6 1014.0 - - - - - - - - -
01/06:00am - SSW 5 6 1013.8 - - - - - - - - -
01/05:30am - SSW 4 5 1013.4 - - - - - - - - -
01/05:00am - CALM 0 0 1013.2 - - - - - - - - -
01/04:30am - S 1 3 1013.0 - - - - - - - - -
01/04:00am - CALM 0 0 1013.0 - - - - - - - - -
01/03:30am - SSW 2 4 1012.7 - - - - - - - - -
01/03:00am - SSW 4 4 1012.7 - - - - - - - - -
01/02:30am - SSW 5 5 1013.0 - - - - - - - - -
01/02:00am - SW 4 5 1013.2 - - - - - - - - -
01/01:30am - WSW 6 7 1013.4 - - - - - - - - -
01/01:00am - WSW 7 8 1013.5 - - - - - - - - -
01/12:30am - WSW 8 9 1013.7 - - - - - - - - -
01/12:00am - WSW 7 8 1014.0 - - - - - - - - -
 
Date/Time
WST
Temp

°C
Wind Pressure Rain
since 9am
mm
Weather Cloud Vis
km
Sea
Height
m
Swell
Dir
 
Speed
knots
Gust
knots
hPa Trend Height
m
Period
s
Dir
31/11:30pm - WSW 6 7 1014.0 - - - - - - - - -
31/11:00pm - WSW 6 5 1013.9 - - - - - - - - -
31/10:30pm - CALM 0 0 1014.1 - - - - - - - - -
31/10:00pm - CALM 0 0 1014.2 - - - - - - - - -
31/09:30pm - CALM 0 0 1014.4 - - - - - - - - -
31/09:00pm - CALM 0 0 1014.5 - - - - - - - - -
31/08:30pm - CALM 0 0 1014.3 - - - - - - - - -
31/08:00pm - S 2 4 1014.0 - - - - - - - - -
31/07:30pm - ESE 4 4 1013.6 - - - - - - - - -
31/07:00pm - SE 4 6 1013.4 - - - - - - - - -
31/06:30pm - SE 6 7 1013.1 - - - - - - - - -
31/06:00pm - SE 6 8 1013.0 - - - - - - - - -
31/05:30pm - SSE 8 9 1012.7 - - - - - - - - -
31/05:00pm - SSE 7 9 1012.7 - - - - - - - - -
31/04:30pm - S 6 8 1012.8 - - - - - - - - -
31/04:00pm - S 6 8 1012.8 - - - - - - - - -
31/03:30pm - S 5 7 1012.9 - - - - - - - - -
31/03:00pm - S 6 8 1012.9 - - - - - - - - -
31/02:30pm - SSE 6 7 1013.1 - - - - - - - - -
31/02:00pm - SSE 5 6 1013.2 - - - - - - - - -
31/01:30pm - SE 5 6 1013.7 - - - - - - - - -
31/01:00pm - ESE 6 7 1013.9 - - - - - - - - -
31/12:30pm - ESE 7 8 1014.2 - - - - - - - - -
31/12:00pm - ESE 8 9 1014.5 - - - - - - - - -
31/11:30am - SE 9 11 1014.5 - - - - - - - - -
31/11:00am - SE 9 12 1014.7 - - - - - - - - -
31/10:30am - SE 12 13 1015.1 - - - - - - - - -
31/10:00am - SSE 12 14 1015.2 - - - - - - - - -
31/09:30am - SSE 12 13 1015.3 - - - - - - - - -
31/09:00am - SSE 11 11 1015.3 - - - - - - - - -
31/08:30am - SSE 8 11 1015.4 - - - - - - - - -
31/08:00am - SSE 9 11 1015.3 - - - - - - - - -
31/07:30am - S 6 8 1015.0 - - - - - - - - -
31/07:00am - S 7 8 1014.6 - - - - - - - - -
31/06:30am - S 6 9 1014.2 - - - - - - - - -
31/06:00am - S 4 5 1014.1 - - - - - - - - -
31/05:30am - S 3 4 1013.9 - - - - - - - - -
31/05:00am - S 3 4 1013.9 - - - - - - - - -
31/04:30am - CALM 0 0 1013.9 - - - - - - - - -
31/04:00am - CALM 0 0 1013.7 - - - - - - - - -
31/03:00am - SE 3 4 1013.5 - - - - - - - - -
31/02:30am - SE 4 5 1013.6 - - - - - - - - -
31/02:00am - ESE 3 4 1013.8 - - - - - - - - -
31/01:30am - S 2 4 1013.9 - - - - - - - - -
31/01:00am - S 5 7 1013.9 - - - - - - - - -
31/12:30am - SSW 6 7 1014.1 - - - - - - - - -
31/12:00am - SSW 6 6 1014.3 - - - - - - - - -
 
Date/Time
WST
Temp

°C
Wind Pressure Rain
since 9am
mm
Weather Cloud Vis
km
Sea
Height
m
Swell
Dir
 
Speed
knots
Gust
knots
hPa Trend Height
m
Period
s
Dir
30/11:30pm - SSW 5 7 1014.3 - - - - - - - - -
30/11:00pm - SSW 5 6 1014.4 - - - - - - - - -
30/10:30pm - SSE 6 6 1014.7 - - - - - - - - -
30/10:00pm - SE 6 7 1014.9 - - - - - - - - -
30/09:30pm - SSE 8 8 1015.1 - - - - - - - - -
30/09:00pm - SSE 8 9 1015.2 - - - - - - - - -
30/08:30pm - SSE 9 10 1015.3 - - - - - - - - -
30/08:00pm - SSE 9 11 1015.2 - - - - - - - - -
30/07:30pm - SSE 9 11 1014.9 - - - - - - - - -
30/07:00pm - SSE 9 11 1014.8 - - - - - - - - -
30/06:30pm - SE 9 11 1014.4 - - - - - - - - -
30/06:00pm - SSE 9 11 1014.3 - - - - - - - - -
30/05:30pm - SSE 12 13 1014.1 - - - - - - - - -
30/05:00pm - SSE 12 14 1013.9 - - - - - - - - -
30/04:30pm - SSE 12 14 1013.8 - - - - - - - - -
30/04:00pm - SSE 11 14 1013.8 - - - - - - - - -
30/03:30pm - SSE 10 12 1013.8 - - - - - - - - -
30/03:00pm - SSE 11 13 1013.9 - - - - - - - - -
30/02:30pm - S 10 14 1013.9 - - - - - - - - -
30/02:00pm - S 10 13 1013.9 - - - - - - - - -
30/01:30pm - S 11 15 1014.1 - - - - - - - - -
30/01:00pm - SSE 12 14 1014.3 - - - - - - - - -
30/12:30pm - SSE 11 14 1014.7 - - - - - - - - -
30/12:00pm - S 8 9 1014.9 - - - - - - - - -
30/11:30am - SSE 8 11 1015.6 - - - - - - - - -
30/11:00am - SSE 10 12 1016.0 - - - - - - - - -
30/10:30am - SSE 11 12 1016.4 - - - - - - - - -
30/10:00am - SSE 10 12 1016.5 - - - - - - - - -
30/09:30am - SSE 10 12 1016.8 - - - - - - - - -
30/09:00am - SSE 9 11 1016.7 - - - - - - - - -
30/08:30am - SSE 10 11 1016.7 - - - - - - - - -
30/08:00am - SSE 9 10 1016.5 - - - - - - - - -
30/07:30am - SSE 8 9 1016.1 - - - - - - - - -
30/07:00am - SE 8 10 1015.9 - - - - - - - - -
30/06:30am - SE 7 8 1015.3 - - - - - - - - -
30/06:00am - SE 7 8 1015.1 - - - - - - - - -
30/05:30am - SE 6 7 1014.9 - - - - - - - - -
30/05:00am - SSE 6 7 1014.8 - - - - - - - - -
30/04:30am - SSE 5 6 1014.7 - - - - - - - - -
30/04:00am - SSE 4 6 1014.7 - - - - - - - - -
30/03:30am - SSE 4 6 1014.7 - - - - - - - - -
30/03:00am - SSE 5 7 1014.7 - - - - - - - - -
30/02:30am - S 5 7 1014.7 - - - - - - - - -
30/02:00am - S 6 8 1014.8 - - - - - - - - -
30/01:30am - SSW 6 7 1014.9 - - - - - - - - -
30/01:00am - SW 5 6 1015.0 - - - - - - - - -
30/12:30am - SW 4 5 1015.5 - - - - - - - - -
30/12:00am - SW 4 4 1015.8 - - - - - - - - -
 
Date/Time
WST
Temp

°C
Wind Pressure Rain
since 9am
mm
Weather Cloud Vis
km
Sea
Height
m
Swell
Dir
 
Speed
knots
Gust
knots
hPa Trend Height
m
Period
s
Dir
29/11:30pm - CALM 0 0 1016.1 - - - - - - - - -
29/11:00pm - CALM 0 0 1016.1 - - - - - - - - -
29/10:30pm - S 1 4 1016.3 - - - - - - - - -
29/10:00pm - S 3 5 1016.3 - - - - - - - - -
29/09:30pm - S 4 5 1016.3 - - - - - - - - -
29/09:00pm - SSW 3 5 1016.4 - - - - - - - - -
29/08:30pm - SSE 4 5 1016.2 - - - - - - - - -
29/08:00pm - SSE 4 5 1016.0 - - - - - - - - -
29/07:30pm - SE 5 6 1015.7 - - - - - - - - -

Other Formats:

Comma delimited format used in spreadsheet applications
http://www.bom.gov.au/fwo/IDW60701/IDW60701.94207.axf

JavaScript Object Notation format (JSON) in row-major order
http://www.bom.gov.au/fwo/IDW60701/IDW60701.94207.json